Time;durP1;ratioP1;P1;durP2;ratioP2;P2;SDS_P1;SDS_P2;PMS_P1;PMS_P2;Temp;Humidity;BMP_temperature;BMP_pressure;BME280_temperature;BME280_humidity;BME280_pressure;Samples;Min_cycle;Max_cycle;Signal;HPM_P1;HPM_P2
2021/12/14 00:02:27;;;;;;;20.17;14.38;;;8.20;99.90;;;;;;4949934;28;20038;-86
2021/12/14 00:04:54;;;;;;;19.55;14.80;;;8.60;99.90;;;;;;4951602;28;20483;-86
2021/12/14 00:07:20;;;;;;;23.60;13.75;;;8.20;99.90;;;;;;4951663;28;20443;-86
2021/12/14 00:09:46;;;;;;;27.55;14.90;;;8.20;99.90;;;;;;4950588;29;20047;-86
2021/12/14 00:12:30;;;;;;;22.08;14.55;;;8.20;99.90;;;;;;4950660;29;20094;-86
2021/12/14 00:15:03;;;;;;;23.83;14.23;;;8.20;99.90;;;;;;4951325;28;20122;-87
2021/12/14 00:17:35;;;;;;;22.50;15.25;;;8.20;99.90;;;;;;4948948;29;20414;-86
2021/12/14 00:20:12;;;;;;;18.83;13.10;;;8.20;99.90;;;;;;4951513;28;20043;-87
2021/12/14 00:25:22;;;;;;;21.10;14.48;;;8.40;99.90;;;;;;4966856;28;20644;-86
2021/12/14 00:27:48;;;;;;;21.77;13.20;;;8.70;99.90;;;;;;4950972;29;20129;-86
2021/12/14 00:30:15;;;;;;;22.10;13.70;;;8.20;99.90;;;;;;4950027;29;20051;-86
2021/12/14 00:32:41;;;;;;;20.15;14.25;;;8.20;99.90;;;;;;4949786;29;20492;-87
2021/12/14 00:35:12;;;;;;;23.67;14.30;;;8.30;99.90;;;;;;4950750;29;20095;-86
2021/12/14 00:37:43;;;;;;;22.40;13.50;;;8.10;99.90;;;;;;4949943;29;20051;-86
2021/12/14 00:40:24;;;;;;;19.65;13.35;;;8.30;99.90;;;;;;4950973;29;20078;-87
2021/12/14 00:42:53;;;;;;;25.45;13.68;;;8.20;99.90;;;;;;4934223;29;20047;-87
2021/12/14 00:45:22;;;;;;;20.50;13.60;;;8.40;99.90;;;;;;4949774;28;20125;-86
2021/12/14 00:47:48;;;;;;;20.65;14.10;;;8.50;99.90;;;;;;4965748;28;20055;-86
2021/12/14 00:50:14;;;;;;;25.75;14.25;;;9.00;99.90;;;;;;4950882;29;20170;-86
2021/12/14 00:52:42;;;;;;;22.25;13.57;;;8.90;99.90;;;;;;4949104;29;20051;-86
2021/12/14 00:55:11;;;;;;;24.98;13.98;;;8.50;99.90;;;;;;4950982;28;20365;-86
2021/12/14 00:57:37;;;;;;;22.45;13.73;;;8.10;99.90;;;;;;4950004;29;20051;-86
2021/12/14 01:00:09;;;;;;;22.77;13.98;;;8.10;99.90;;;;;;4949973;29;20582;-86
2021/12/14 01:02:36;;;;;;;21.00;13.23;;;8.10;99.90;;;;;;4948853;29;20087;-86
2021/12/14 01:05:18;;;;;;;22.90;13.05;;;8.30;99.90;;;;;;4950741;28;20039;-85
2021/12/14 01:07:44;;;;;;;20.03;13.83;;;8.10;99.90;;;;;;4949815;29;20055;-85
2021/12/14 01:10:27;;;;;;;22.58;13.98;;;9.10;99.90;;;;;;4950157;29;20048;-86
2021/12/14 01:12:59;;;;;;;22.70;13.23;;;8.40;99.90;;;;;;4964657;28;20114;-85
2021/12/14 01:15:42;;;;;;;19.73;14.43;;;9.00;99.90;;;;;;4950215;28;20047;-85
2021/12/14 01:18:30;;;;;;;19.38;14.15;;;8.50;99.90;;;;;;4965485;28;20574;-85
2021/12/14 01:21:02;;;;;;;20.85;14.13;;;8.00;99.90;;;;;;4949479;28;20094;-86
2021/12/14 01:23:32;;;;;;;23.50;14.85;;;8.20;99.90;;;;;;4963730;28;20050;-85
2021/12/14 01:26:06;;;;;;;21.80;14.15;;;8.90;99.90;;;;;;4952996;28;20053;-86
2021/12/14 01:28:33;;;;;;;22.13;14.02;;;8.80;99.90;;;;;;4950731;28;20106;-85
2021/12/14 01:31:11;;;;;;;20.60;13.88;;;8.30;99.90;;;;;;4968924;28;20355;-85
2021/12/14 01:33:41;;;;;;;22.08;14.40;;;8.10;99.90;;;;;;4966732;28;20149;-85
2021/12/14 01:36:22;;;;;;;21.42;14.88;;;8.30;99.90;;;;;;4969251;28;20058;-86
2021/12/14 01:39:09;;;;;;;23.55;14.88;;;8.10;99.90;;;;;;4952834;28;20058;-85
2021/12/14 01:41:37;;;;;;;21.92;14.63;;;8.40;99.90;;;;;;4967706;28;20058;-85
2021/12/14 01:44:03;;;;;;;19.23;14.38;;;8.30;99.90;;;;;;4968190;28;20414;-85
2021/12/14 01:46:34;;;;;;;23.27;15.15;;;8.10;99.90;;;;;;4952236;28;20482;-85
2021/12/14 01:49:05;;;;;;;25.75;15.35;;;8.20;99.90;;;;;;4950733;28;20039;-85
2021/12/14 01:51:31;;;;;;;23.75;15.15;;;8.40;99.90;;;;;;4952643;28;20380;-85
2021/12/14 01:53:57;;;;;;;21.63;14.70;;;8.20;99.90;;;;;;4968095;28;20414;-85
2021/12/14 01:56:26;;;;;;;21.17;14.43;;;8.10;99.90;;;;;;4967931;28;20050;-85
2021/12/14 01:58:56;;;;;;;22.95;15.63;;;9.00;99.90;;;;;;4967919;28;20058;-85
2021/12/14 02:01:28;;;;;;;26.45;16.35;;;8.70;99.90;;;;;;4968305;28;20043;-85
2021/12/14 02:04:00;;;;;;;24.27;15.27;;;8.10;99.90;;;;;;4967526;28;20154;-85
2021/12/14 02:06:30;;;;;;;26.10;15.48;;;8.40;99.90;;;;;;4968385;28;20441;-85
2021/12/14 02:09:06;;;;;;;22.80;16.05;;;8.10;99.90;;;;;;4967823;28;20101;-85
2021/12/14 02:11:35;;;;;;;21.13;14.43;;;8.10;99.90;;;;;;4967640;28;20403;-85
2021/12/14 02:14:03;;;;;;;24.05;15.98;;;8.90;99.90;;;;;;4968084;28;20082;-86
2021/12/14 02:16:29;;;;;;;23.45;16.42;;;8.70;99.90;;;;;;4966805;28;20042;-85
2021/12/14 02:19:02;;;;;;;27.05;17.33;;;8.10;99.90;;;;;;4967458;28;20101;-85
2021/12/14 02:21:28;;;;;;;25.73;17.88;;;8.50;99.90;;;;;;4967616;28;20101;-85
2021/12/14 02:23:57;;;;;;;25.20;18.05;;;9.00;99.90;;;;;;4967469;28;20086;-85
2021/12/14 02:26:29;;;;;;;29.88;18.33;;;8.80;99.90;;;;;;4967594;28;20047;-85
2021/12/14 02:28:57;;;;;;;24.30;18.57;;;8.10;99.90;;;;;;4968623;28;20109;-85
2021/12/14 02:31:25;;;;;;;28.95;19.48;;;8.00;99.90;;;;;;4950924;28;20294;-85
2021/12/14 02:33:53;;;;;;;26.58;18.45;;;8.60;99.90;;;;;;4966757;28;20055;-85
2021/12/14 02:36:32;;;;;;;29.88;18.73;;;8.30;99.90;;;;;;4968020;28;20162;-85
2021/12/14 02:39:08;;;;;;;26.98;19.45;;;8.00;99.90;;;;;;4966326;28;20046;-85
2021/12/14 02:41:45;;;;;;;27.73;20.38;;;8.70;99.90;;;;;;4967123;28;20050;-82
2021/12/14 02:44:11;;;;;;;29.42;20.52;;;8.60;99.90;;;;;;4964773;28;20077;-83
2021/12/14 02:46:42;;;;;;;27.02;18.83;;;8.10;99.90;;;;;;4968006;28;20058;-82
2021/12/14 02:49:12;;;;;;;29.23;21.05;;;8.00;99.90;;;;;;4968020;28;20043;-83
2021/12/14 02:51:41;;;;;;;31.33;21.33;;;9.10;99.90;;;;;;4967140;28;20101;-83
2021/12/14 02:54:12;;;;;;;29.50;19.98;;;8.00;99.90;;;;;;4968509;28;20046;-83
2021/12/14 02:56:40;;;;;;;32.15;22.05;;;8.00;99.90;;;;;;4968107;28;20502;-83
2021/12/14 02:59:13;;;;;;;36.13;21.80;;;8.50;99.90;;;;;;4967347;28;20073;-83
2021/12/14 03:01:41;;;;;;;37.03;22.27;;;8.00;99.90;;;;;;4952323;28;20085;-83
2021/12/14 03:04:09;;;;;;;32.08;22.30;;;8.40;99.90;;;;;;4967702;28;20043;-83
2021/12/14 03:06:45;;;;;;;33.03;22.15;;;8.00;99.90;;;;;;4951216;28;20166;-83
2021/12/14 03:09:33;;;;;;;32.10;22.40;;;7.90;99.90;;;;;;4968489;28;20510;-82
2021/12/14 03:12:05;;;;;;;34.35;20.95;;;8.00;99.90;;;;;;4967779;28;20407;-83
2021/12/14 03:14:31;;;;;;;32.25;22.98;;;7.90;99.90;;;;;;4951416;28;20085;-83
2021/12/14 03:16:57;;;;;;;35.47;23.83;;;7.90;99.90;;;;;;4951856;28;20071;-82
2021/12/14 03:19:22;;;;;;;31.25;22.20;;;8.40;99.90;;;;;;4951151;28;20512;-83
2021/12/14 03:21:49;;;;;;;31.30;21.50;;;7.90;99.90;;;;;;4952109;28;20146;-82
2021/12/14 03:24:18;;;;;;;34.55;23.48;;;8.00;99.90;;;;;;4968136;28;20058;-83
2021/12/14 03:26:48;;;;;;;32.22;22.65;;;7.90;99.90;;;;;;4967044;28;20056;-83
2021/12/14 03:29:26;;;;;;;34.72;23.00;;;8.70;99.90;;;;;;4968460;28;20042;-83
2021/12/14 03:31:56;;;;;;;34.05;21.85;;;7.90;99.90;;;;;;4967363;28;20545;-83
2021/12/14 03:34:28;;;;;;;33.55;23.00;;;7.90;99.90;;;;;;4950666;28;20054;-83
2021/12/14 03:36:56;;;;;;;36.83;24.50;;;7.90;99.90;;;;;;4967805;28;20097;-83
2021/12/14 03:39:26;;;;;;;32.25;22.98;;;8.40;99.90;;;;;;4951954;28;20043;-83
2021/12/14 03:41:56;;;;;;;34.80;23.85;;;7.90;99.90;;;;;;4967045;28;20078;-83
2021/12/14 03:44:31;;;;;;;35.47;23.45;;;8.30;99.90;;;;;;4967787;28;20054;-83
2021/12/14 03:47:05;;;;;;;35.08;23.67;;;7.90;99.90;;;;;;4966151;28;20047;-82
2021/12/14 03:49:36;;;;;;;34.65;22.75;;;7.90;99.90;;;;;;4951504;28;20199;-83
2021/12/14 03:52:07;;;;;;;34.40;24.73;;;8.70;99.90;;;;;;4970081;28;20565;-83
2021/12/14 03:54:33;;;;;;;35.83;24.27;;;7.90;99.90;;;;;;4969661;28;20035;-83
2021/12/14 03:56:59;;;;;;;34.97;23.63;;;7.80;99.90;;;;;;4971469;28;20043;-82
2021/12/14 03:59:28;;;;;;;38.30;25.23;;;7.90;99.90;;;;;;4955095;28;20473;-83
2021/12/14 04:01:54;;;;;;;37.00;24.48;;;8.70;99.90;;;;;;4969706;28;20054;-82
2021/12/14 04:04:27;;;;;;;35.58;23.10;;;7.90;99.90;;;;;;4971091;28;20046;-83
2021/12/14 04:06:57;;;;;;;32.83;23.33;;;8.70;99.90;;;;;;4971221;28;20047;-82
2021/12/14 04:09:27;;;;;;;37.47;24.48;;;7.90;99.90;;;;;;4969805;28;20053;-83
2021/12/14 04:11:54;;;;;;;37.45;25.00;;;7.90;99.90;;;;;;4970872;28;20525;-83
2021/12/14 04:14:20;;;;;;;39.17;24.92;;;7.90;99.90;;;;;;4970830;28;20181;-83
2021/12/14 04:16:50;;;;;;;37.08;25.67;;;8.50;99.90;;;;;;4969183;28;20133;-83
2021/12/14 04:19:22;;;;;;;38.25;24.17;;;8.60;99.90;;;;;;4970701;28;20034;-83
2021/12/14 04:21:48;;;;;;;34.95;25.60;;;7.90;99.90;;;;;;4954536;28;20113;-83
2021/12/14 04:24:20;;;;;;;35.42;24.25;;;7.90;99.90;;;;;;4969541;28;20050;-83
2021/12/14 04:26:46;;;;;;;37.75;24.95;;;7.90;99.90;;;;;;4970488;28;20119;-82
2021/12/14 04:29:14;;;;;;;39.95;24.38;;;8.50;99.90;;;;;;4969813;28;20053;-82
2021/12/14 04:31:42;;;;;;;37.47;24.15;;;8.40;99.90;;;;;;4954605;28;20102;-83
2021/12/14 04:34:08;;;;;;;38.42;25.08;;;8.20;99.90;;;;;;4969986;28;20047;-83
2021/12/14 04:36:34;;;;;;;35.72;24.67;;;7.90;99.90;;;;;;4969637;28;20487;-82
2021/12/14 04:39:32;;;;;;;38.50;24.98;;;8.00;99.90;;;;;;4970562;28;20058;-82
2021/12/14 04:53:32;;;;;;;41.63;26.33;;;8.00;99.90;;;;;;4970276;28;20426;-82
2021/12/14 04:55:58;;;;;;;44.95;26.58;;;8.00;99.90;;;;;;4970734;28;20038;-82
2021/12/14 04:58:33;;;;;;;44.75;28.05;;;8.80;99.90;;;;;;4969055;28;20509;-82
2021/12/14 05:01:00;;;;;;;43.85;27.65;;;7.90;99.90;;;;;;4970431;28;20089;-82
2021/12/14 05:03:32;;;;;;;41.60;26.55;;;7.90;99.90;;;;;;4968547;28;20086;-82
2021/12/14 05:06:16;;;;;;;49.78;27.92;;;8.30;99.90;;;;;;4969646;28;20581;-82
2021/12/14 05:11:14;;;;;;;48.55;28.48;;;7.90;99.90;;;;;;4969846;28;19922;-83
2021/12/14 05:13:43;;;;;;;47.53;28.80;;;7.90;99.90;;;;;;4968840;28;20093;-82
2021/12/14 05:16:17;;;;;;;48.38;29.02;;;7.90;99.90;;;;;;4970093;28;20525;-82
2021/12/14 05:18:49;;;;;;;47.92;28.95;;;7.90;99.90;;;;;;4967624;28;20055;-82
2021/12/14 05:21:24;;;;;;;46.40;28.77;;;7.90;99.90;;;;;;4969993;28;20085;-83
2021/12/14 05:23:51;;;;;;;47.45;28.27;;;7.90;99.90;;;;;;4955161;28;20337;-83
2021/12/14 05:26:18;;;;;;;44.72;28.45;;;8.20;99.90;;;;;;4969149;28;20109;-82
2021/12/14 05:28:44;;;;;;;45.80;28.08;;;7.90;99.90;;;;;;4952960;28;20042;-83
2021/12/14 05:31:10;;;;;;;44.15;27.08;;;8.40;99.90;;;;;;4953836;28;20080;-82
2021/12/14 05:33:37;;;;;;;42.80;28.30;;;8.30;99.90;;;;;;4967344;28;20038;-82
2021/12/14 05:36:10;;;;;;;45.38;28.73;;;8.50;99.90;;;;;;4945321;28;20138;-82
2021/12/14 05:38:52;;;;;;;47.00;29.15;;;7.90;99.90;;;;;;4948397;28;20047;-83
2021/12/14 05:44:09;;;;;;;45.83;28.40;;;7.90;99.90;;;;;;4969270;28;20054;-82
2021/12/14 05:46:35;;;;;;;49.03;29.42;;;8.30;99.90;;;;;;4952182;28;20077;-82
2021/12/14 05:49:06;;;;;;;48.63;30.95;;;8.00;99.90;;;;;;4952549;28;20130;-82
2021/12/14 05:51:35;;;;;;;54.78;31.02;;;7.90;99.90;;;;;;4952626;28;20049;-82
2021/12/14 05:54:02;;;;;;;51.10;29.80;;;7.90;99.90;;;;;;4952452;28;20161;-82
2021/12/14 05:56:30;;;;;;;48.28;29.50;;;7.90;99.90;;;;;;4952632;28;20047;-82
2021/12/14 05:58:57;;;;;;;51.15;31.50;;;7.90;99.90;;;;;;4952792;28;20475;-82
2021/12/14 06:01:26;;;;;;;51.40;30.33;;;7.80;99.90;;;;;;4952099;28;20210;-82
2021/12/14 06:04:01;;;;;;;54.47;32.78;;;8.60;99.90;;;;;;4951526;28;20129;-82
2021/12/14 06:06:36;;;;;;;55.17;31.42;;;7.90;99.90;;;;;;4952392;28;20491;-82
2021/12/14 06:09:11;;;;;;;56.45;31.40;;;7.80;99.90;;;;;;4951999;28;20047;-82
2021/12/14 06:11:38;;;;;;;50.78;31.67;;;7.80;99.90;;;;;;4968969;28;20053;-82
2021/12/14 06:14:10;;;;;;;52.65;31.45;;;7.90;99.90;;;;;;4967871;28;20511;-82
2021/12/14 06:16:36;;;;;;;54.90;31.98;;;8.40;99.90;;;;;;4967944;28;20086;-83
2021/12/14 06:19:21;;;;;;;56.58;31.15;;;8.20;99.90;;;;;;4967485;28;20495;-82
2021/12/14 06:21:53;;;;;;;53.88;33.38;;;8.00;99.90;;;;;;4967369;28;20509;-82
2021/12/14 06:24:22;;;;;;;53.33;33.15;;;7.90;99.90;;;;;;4968571;28;20050;-82
2021/12/14 06:26:50;;;;;;;53.42;32.40;;;8.00;99.90;;;;;;4968427;28;20085;-82
2021/12/14 06:29:19;;;;;;;52.58;31.70;;;8.80;99.90;;;;;;4967625;28;20526;-82
2021/12/14 06:31:45;;;;;;;61.38;34.15;;;7.90;99.90;;;;;;4967023;28;20047;-82
2021/12/14 06:34:23;;;;;;;53.83;33.03;;;7.90;99.90;;;;;;4968590;28;20141;-82
2021/12/14 06:37:19;;;;;;;48.67;31.90;;;7.90;99.90;;;;;;4967698;28;20042;-82
2021/12/14 06:40:04;;;;;;;55.72;33.08;;;7.90;99.90;;;;;;4968034;28;20371;-82
2021/12/14 06:42:31;;;;;;;53.95;33.67;;;7.90;99.90;;;;;;4951233;28;20506;-82
2021/12/14 06:45:12;;;;;;;60.70;35.13;;;7.90;99.90;;;;;;4958184;28;20155;-82
2021/12/14 06:47:40;;;;;;;55.67;33.20;;;7.90;99.90;;;;;;4950993;28;20086;-82
2021/12/14 06:50:11;;;;;;;56.83;34.22;;;7.90;99.90;;;;;;4951514;28;20133;-82
2021/12/14 06:52:37;;;;;;;57.53;35.20;;;7.90;99.90;;;;;;4968027;28;20082;-82
2021/12/14 06:55:05;;;;;;;67.22;36.45;;;7.90;99.90;;;;;;4968069;28;20054;-82
2021/12/14 06:57:32;;;;;;;57.53;34.78;;;7.90;99.90;;;;;;4950887;28;20058;-82
2021/12/14 06:59:58;;;;;;;60.92;35.10;;;7.90;99.90;;;;;;4952518;28;20042;-82
2021/12/14 07:02:25;;;;;;;59.83;35.53;;;7.90;99.90;;;;;;4966668;28;20143;-82
2021/12/14 07:04:51;;;;;;;59.38;35.03;;;8.60;99.90;;;;;;4967619;28;20057;-82
2021/12/14 07:07:23;;;;;;;62.30;35.42;;;7.90;99.90;;;;;;4951144;28;20569;-82
2021/12/14 07:10:00;;;;;;;57.97;35.97;;;7.90;99.90;;;;;;4952111;28;20043;-82
2021/12/14 07:12:31;;;;;;;63.75;37.70;;;7.90;99.90;;;;;;4966847;28;20047;-82
2021/12/14 07:15:06;;;;;;;71.65;37.15;;;7.90;99.90;;;;;;4951959;28;20446;-82
2021/12/14 07:17:42;;;;;;;65.95;37.35;;;7.90;99.90;;;;;;4950123;28;20513;-82
2021/12/14 07:20:21;;;;;;;69.68;36.80;;;8.40;99.90;;;;;;4967753;28;20441;-82
2021/12/14 07:22:51;;;;;;;65.40;36.58;;;7.90;99.90;;;;;;4951604;28;20086;-82
2021/12/14 07:25:27;;;;;;;67.22;37.75;;;7.90;99.90;;;;;;4950673;28;20058;-82
2021/12/14 07:28:04;;;;;;;72.65;39.85;;;7.80;99.90;;;;;;4971915;28;20049;-82
2021/12/14 07:30:32;;;;;;;77.55;38.30;;;7.90;99.90;;;;;;4971390;28;20061;-82
2021/12/14 07:33:03;;;;;;;72.47;39.13;;;7.90;99.90;;;;;;4969614;28;20101;-82
2021/12/14 07:35:49;;;;;;;77.38;39.90;;;7.90;99.90;;;;;;4968479;28;20403;-81
2021/12/14 07:38:18;;;;;;;79.65;40.47;;;7.90;99.90;;;;;;4951973;28;20051;-82
2021/12/14 07:40:49;;;;;;;78.45;40.22;;;7.80;99.90;;;;;;4967676;28;20050;-82
2021/12/14 07:43:20;;;;;;;81.90;41.45;;;7.90;99.90;;;;;;4961381;28;20054;-82
2021/12/14 07:45:50;;;;;;;97.60;42.45;;;7.90;99.90;;;;;;4960994;28;20047;-82
2021/12/14 07:48:18;;;;;;;87.47;41.35;;;8.30;99.90;;;;;;4942159;28;20118;-82
2021/12/14 07:50:54;;;;;;;87.05;42.70;;;7.90;99.90;;;;;;4961736;28;20054;-82
2021/12/14 07:53:31;;;;;;;92.43;42.15;;;8.00;99.90;;;;;;4944939;28;20551;-82
2021/12/14 07:55:57;;;;;;;91.32;44.22;;;7.90;99.90;;;;;;4946061;28;20053;-82
2021/12/14 07:58:33;;;;;;;92.80;43.53;;;7.90;99.90;;;;;;4985539;28;20512;-82
2021/12/14 08:01:00;;;;;;;91.15;43.47;;;7.90;99.90;;;;;;4953570;28;20035;-82
2021/12/14 08:03:32;;;;;;;100.43;44.92;;;8.60;99.90;;;;;;4951277;28;20049;-83
2021/12/14 08:05:58;;;;;;;97.57;46.40;;;7.80;99.90;;;;;;4952423;28;20443;-82
2021/12/14 08:08:33;;;;;;;91.32;43.05;;;8.10;99.90;;;;;;4934986;29;20059;-82
2021/12/14 08:13:50;;;;;;;99.30;42.30;;;8.00;99.90;;;;;;4960072;28;20114;-82
2021/12/14 08:16:17;;;;;;;96.38;44.63;;;7.90;99.90;;;;;;4956526;28;20504;-81
2021/12/14 08:18:44;;;;;;;105.97;45.22;;;8.60;99.90;;;;;;4984534;28;20047;-82
2021/12/14 08:21:17;;;;;;;104.40;46.25;;;8.00;99.90;;;;;;4959821;28;20099;-82
2021/12/14 08:23:49;;;;;;;97.88;46.83;;;7.90;99.90;;;;;;4959542;28;20139;-82
2021/12/14 08:26:26;;;;;;;102.65;45.55;;;8.40;99.90;;;;;;4985497;28;20054;-82
2021/12/14 08:28:58;;;;;;;102.55;45.53;;;8.00;99.90;;;;;;4945021;28;20549;-84
2021/12/14 08:31:33;;;;;;;115.20;45.92;;;8.20;99.90;;;;;;4962146;28;20043;-84
2021/12/14 08:34:06;;;;;;;92.20;44.88;;;8.00;99.90;;;;;;4960048;28;20043;-85
2021/12/14 08:36:42;;;;;;;102.57;47.07;;;8.00;99.90;;;;;;4958176;28;20039;-82
2021/12/14 08:39:20;;;;;;;105.13;45.15;;;8.00;99.90;;;;;;4961580;28;20039;-85
2021/12/14 08:41:54;;;;;;;101.32;45.35;;;8.00;99.90;;;;;;4945564;28;20104;-85
2021/12/14 08:44:35;;;;;;;96.68;43.67;;;8.10;99.90;;;;;;4946050;28;20440;-82
2021/12/14 08:47:04;;;;;;;98.45;44.70;;;8.00;99.90;;;;;;4968683;28;20506;-83
2021/12/14 08:49:30;;;;;;;105.38;47.28;;;8.00;99.90;;;;;;4965898;28;20039;-82
2021/12/14 08:51:56;;;;;;;101.57;44.72;;;8.10;99.90;;;;;;4980375;28;20043;-82
2021/12/14 08:54:26;;;;;;;99.10;45.35;;;8.00;99.90;;;;;;4944244;28;20035;-82
2021/12/14 08:57:00;;;;;;;96.80;44.00;;;8.00;99.90;;;;;;4962801;28;20085;-82
2021/12/14 08:59:27;;;;;;;91.20;42.28;;;8.10;99.90;;;;;;4953887;28;20141;-83
2021/12/14 09:01:53;;;;;;;100.13;45.05;;;8.10;99.90;;;;;;4953684;28;20046;-82
2021/12/14 09:04:30;;;;;;;91.60;43.75;;;9.00;99.90;;;;;;4969233;28;20092;-83
2021/12/14 09:07:04;;;;;;;96.60;45.65;;;8.10;99.90;;;;;;4969844;28;20218;-83
2021/12/14 09:09:30;;;;;;;108.25;46.67;;;8.10;99.90;;;;;;4953733;28;20046;-82
2021/12/14 09:12:04;;;;;;;107.18;47.20;;;8.40;99.90;;;;;;4952710;28;20109;-83
2021/12/14 09:14:30;;;;;;;97.50;44.67;;;8.10;99.90;;;;;;4969683;28;20047;-83
2021/12/14 09:16:57;;;;;;;106.47;45.92;;;8.10;99.90;;;;;;4953158;28;20047;-82
2021/12/14 09:19:32;;;;;;;100.85;45.65;;;8.70;99.90;;;;;;4969297;28;20043;-83
2021/12/14 09:22:02;;;;;;;105.25;44.40;;;8.10;99.90;;;;;;4969751;28;20058;-83
2021/12/14 09:24:31;;;;;;;100.38;43.47;;;8.20;99.90;;;;;;4959366;28;20043;-83
2021/12/14 09:27:01;;;;;;;97.38;44.50;;;8.20;99.90;;;;;;4961216;28;20554;-84
2021/12/14 09:29:28;;;;;;;92.70;42.80;;;8.20;99.90;;;;;;4953997;28;20054;-83
2021/12/14 09:31:56;;;;;;;94.88;43.53;;;8.20;99.90;;;;;;4968478;28;20543;-86
2021/12/14 09:34:25;;;;;;;94.63;44.45;;;8.20;99.90;;;;;;4950467;29;20126;-84
2021/12/14 09:36:54;;;;;;;91.35;43.78;;;8.20;99.90;;;;;;4950353;29;20503;-84
2021/12/14 09:39:26;;;;;;;96.47;42.95;;;8.40;99.90;;;;;;4949935;29;20122;-85
2021/12/14 09:41:53;;;;;;;102.55;44.08;;;8.30;99.90;;;;;;4950616;28;20448;-83
2021/12/14 09:44:39;;;;;;;98.82;45.17;;;8.50;99.90;;;;;;4963411;28;20055;-84
2021/12/14 09:47:13;;;;;;;95.55;44.95;;;8.40;99.90;;;;;;4967111;28;20582;-84
2021/12/14 09:49:40;;;;;;;98.40;44.08;;;8.40;99.90;;;;;;4967966;28;20565;-85
2021/12/14 09:52:15;;;;;;;96.25;44.42;;;8.60;99.90;;;;;;4953434;28;20043;-84
2021/12/14 09:54:41;;;;;;;101.00;45.30;;;8.40;99.90;;;;;;4952844;28;20078;-85
2021/12/14 09:57:13;;;;;;;88.22;43.53;;;8.60;99.90;;;;;;4969404;28;20043;-84
2021/12/14 09:59:41;;;;;;;82.20;40.95;;;8.50;99.90;;;;;;4969467;28;20059;-85
2021/12/14 10:02:11;;;;;;;78.25;40.33;;;9.30;99.90;;;;;;4968050;28;20092;-85
2021/12/14 10:04:57;;;;;;;78.40;40.33;;;8.50;99.90;;;;;;4969552;28;20110;-85
2021/12/14 10:07:46;;;;;;;80.93;41.10;;;9.50;99.90;;;;;;4967703;28;20656;-85
2021/12/14 10:10:24;;;;;;;78.05;40.10;;;8.40;99.90;;;;;;4969524;28;20054;-85
2021/12/14 10:12:59;;;;;;;79.70;42.05;;;8.50;99.90;;;;;;4965193;28;20054;-85
2021/12/14 10:15:32;;;;;;;78.15;40.70;;;8.60;99.90;;;;;;4965338;28;20045;-86
2021/12/14 10:18:08;;;;;;;85.05;40.58;;;8.50;99.90;;;;;;4965179;28;20154;-85
2021/12/14 10:20:56;;;;;;;83.93;39.33;;;8.50;99.90;;;;;;4949605;28;20061;-85
2021/12/14 10:23:38;;;;;;;79.70;38.97;;;8.50;99.90;;;;;;4949744;28;20093;-85
2021/12/14 10:26:05;;;;;;;77.95;39.08;;;8.50;99.90;;;;;;4966287;28;20399;-85
2021/12/14 10:28:47;;;;;;;85.25;40.45;;;8.50;99.90;;;;;;4964205;28;20466;-85
2021/12/14 10:31:43;;;;;;;92.72;39.88;;;9.70;99.90;;;;;;4981670;28;20054;-85
2021/12/14 10:34:18;;;;;;;79.25;40.58;;;8.50;99.90;;;;;;4950073;29;20577;-85
2021/12/14 10:37:11;;;;;;;81.82;40.10;;;8.50;99.90;;;;;;4964876;28;20880;-85
2021/12/14 10:43:07;;;;;;;84.63;39.08;;;8.60;99.90;;;;;;4981050;28;20054;-85
2021/12/14 10:45:56;;;;;;;87.93;40.55;;;8.60;99.90;;;;;;4963838;28;20579;-85
2021/12/14 10:48:42;;;;;;;83.80;40.65;;;8.60;99.90;;;;;;4964253;28;20047;-85
2021/12/14 10:51:12;;;;;;;84.85;39.35;;;8.60;99.90;;;;;;4965365;28;20133;-85
2021/12/14 10:53:46;;;;;;;76.68;36.58;;;8.60;99.90;;;;;;4965252;28;20043;-84
2021/12/14 10:56:36;;;;;;;77.30;37.03;;;8.60;99.90;;;;;;4964849;28;20073;-84
2021/12/14 10:59:05;;;;;;;77.78;37.15;;;8.70;99.90;;;;;;4949275;28;20047;-84
2021/12/14 11:01:50;;;;;;;72.13;35.67;;;9.70;99.90;;;;;;4949148;28;20055;-84
2021/12/14 11:04:20;;;;;;;75.75;37.25;;;8.30;99.90;;;;;;4948916;29;20464;-85
2021/12/14 11:06:52;;;;;;;69.50;35.10;;;8.70;99.90;;;;;;4948897;29;20447;-85
2021/12/14 11:09:46;;;;;;;71.57;36.25;;;8.70;99.90;;;;;;4965605;28;20063;-85
2021/12/14 11:12:40;;;;;;;76.53;33.75;;;9.50;99.90;;;;;;4963749;28;20070;-84
2021/12/14 11:15:13;;;;;;;77.35;36.05;;;8.80;99.90;;;;;;4965697;28;20514;-85
2021/12/14 11:18:13;;;;;;;75.65;36.17;;;8.80;99.90;;;;;;4979535;28;20114;-84
2021/12/14 11:20:44;;;;;;;77.18;36.38;;;8.70;99.90;;;;;;4965387;28;20101;-85
2021/12/14 11:23:21;;;;;;;72.88;34.00;;;8.70;99.90;;;;;;4949246;29;20092;-85
2021/12/14 11:25:55;;;;;;;64.35;32.83;;;8.70;99.90;;;;;;4948382;29;20046;-84
2021/12/14 11:28:33;;;;;;;72.20;34.15;;;8.80;99.90;;;;;;4948379;28;20519;-84
2021/12/14 11:31:03;;;;;;;69.05;33.15;;;9.10;99.90;;;;;;4981531;28;20142;-85
2021/12/14 11:33:34;;;;;;;67.30;33.47;;;8.80;99.90;;;;;;4962861;28;20097;-84
2021/12/14 11:36:04;;;;;;;65.57;32.90;;;8.90;99.90;;;;;;4965029;28;20047;-84
2021/12/14 11:38:49;;;;;;;76.45;32.78;;;8.80;99.90;;;;;;4963741;28;20446;-84
2021/12/14 11:41:20;;;;;;;76.90;33.35;;;8.80;99.90;;;;;;4964921;28;20066;-84
2021/12/14 11:43:50;;;;;;;72.75;33.63;;;8.80;99.90;;;;;;4982359;28;20043;-84
2021/12/14 11:46:16;;;;;;;78.93;35.20;;;8.90;99.90;;;;;;4967443;28;20061;-84
2021/12/14 11:48:42;;;;;;;73.25;33.60;;;8.80;99.90;;;;;;4983085;28;20051;-84
2021/12/14 11:51:08;;;;;;;76.20;34.42;;;9.30;99.90;;;;;;4952586;28;20116;-83
2021/12/14 11:53:35;;;;;;;83.43;35.55;;;8.90;99.90;;;;;;4982309;28;20046;-84
2021/12/14 11:56:11;;;;;;;76.53;34.42;;;9.00;99.90;;;;;;4984416;28;20434;-84
2021/12/14 11:58:43;;;;;;;76.50;32.45;;;8.80;99.90;;;;;;4951254;28;20479;-84
2021/12/14 12:01:19;;;;;;;74.93;33.13;;;9.20;99.90;;;;;;4951840;28;20046;-84
2021/12/14 12:03:52;;;;;;;77.93;34.50;;;8.80;99.90;;;;;;4950863;28;20085;-84
2021/12/14 12:06:43;;;;;;;;;;;8.80;99.90;;;;;;4951911;28;20046;-85
2021/12/14 12:11:55;;;;;;;82.22;33.55;;;8.80;99.90;;;;;;4985270;28;20066;-84
2021/12/14 12:14:46;;;;;;;68.28;31.27;;;8.80;99.90;;;;;;4953980;28;20179;-83
2021/12/14 12:17:17;;;;;;;80.00;32.63;;;8.80;99.90;;;;;;4969727;28;20043;-85
2021/12/14 12:20:08;;;;;;;82.60;33.03;;;8.90;99.90;;;;;;4954793;28;20093;-83
2021/12/14 12:22:43;;;;;;;87.32;33.42;;;8.90;99.90;;;;;;4980359;28;20055;-85
2021/12/14 12:25:13;;;;;;;87.00;33.22;;;8.80;99.90;;;;;;4963902;28;20498;-84
2021/12/14 12:27:45;;;;;;;82.90;32.95;;;8.80;99.90;;;;;;4962339;28;20047;-84
2021/12/14 12:30:15;;;;;;;76.80;31.27;;;8.90;99.90;;;;;;4958576;28;20134;-84
2021/12/14 12:32:42;;;;;;;83.78;33.28;;;8.90;99.90;;;;;;4969761;28;20043;-85
2021/12/14 12:35:27;;;;;;;74.07;30.85;;;8.90;99.90;;;;;;4970884;28;20050;-85
2021/12/14 12:37:54;;;;;;;72.28;30.10;;;8.90;99.90;;;;;;4970684;28;20039;-85
2021/12/14 12:40:45;;;;;;;77.72;30.70;;;8.90;99.90;;;;;;4975029;28;20042;-84
2021/12/14 12:43:14;;;;;;;72.95;28.52;;;9.10;99.90;;;;;;4970106;28;20093;-85
2021/12/14 12:45:44;;;;;;;61.47;25.98;;;8.90;99.90;;;;;;4989846;28;20058;-85
2021/12/14 12:48:40;;;;;;;55.22;25.33;;;8.90;99.90;;;;;;4956957;28;20046;-85
2021/12/14 12:51:07;;;;;;;55.80;25.77;;;8.90;99.90;;;;;;4970726;28;20046;-85
2021/12/14 12:53:40;;;;;;;61.95;26.15;;;9.40;99.90;;;;;;4961241;28;20054;-84
2021/12/14 12:56:07;;;;;;;;;;;9.30;99.90;;;;;;4962450;28;20081;-84
2021/12/14 12:58:33;;;;;;;62.45;26.15;;;9.00;99.90;;;;;;4970357;28;19957;-84
2021/12/14 13:01:00;;;;;;;66.82;26.38;;;9.70;99.90;;;;;;4971039;28;20097;-85
2021/12/14 13:03:35;;;;;;;68.32;27.27;;;9.00;99.90;;;;;;4952920;28;20106;-85
2021/12/14 13:06:11;;;;;;;72.05;28.33;;;8.90;99.90;;;;;;4954625;28;20061;-84
2021/12/14 13:08:44;;;;;;;64.30;26.17;;;9.00;99.90;;;;;;4954065;28;20470;-85
2021/12/14 13:11:26;;;;;;;70.32;26.92;;;8.90;99.90;;;;;;4984715;28;20080;-86
2021/12/14 13:13:58;;;;;;;80.40;28.70;;;8.90;99.90;;;;;;4954281;28;20138;-85
2021/12/14 13:16:26;;;;;;;61.70;26.40;;;8.90;99.90;;;;;;4970157;28;20054;-86
2021/12/14 13:18:59;;;;;;;71.63;27.30;;;9.20;99.90;;;;;;4968695;28;20130;-86
2021/12/14 13:21:30;;;;;;;73.40;28.13;;;8.90;99.90;;;;;;4986386;28;20376;-86
2021/12/14 13:24:20;;;;;;;78.07;28.13;;;9.90;99.90;;;;;;4953975;28;20051;-85
2021/12/14 13:26:49;;;;;;;80.25;28.70;;;8.90;99.90;;;;;;4953573;28;20051;-86
2021/12/14 13:29:17;;;;;;;83.28;29.02;;;8.90;99.90;;;;;;4954253;28;20581;-86
2021/12/14 13:31:49;;;;;;;70.47;25.83;;;8.90;99.90;;;;;;4968637;28;20214;-86